Terminal Aerodrome Forecast
Issued by NWS Sioux Falls, SD

Home | Current Version | Previous Version | Text Only | Print | Product List | Glossary On
Versions: 1 2 3 4 5 6 7 8 9 10 11 12 13 14 15 16 17 18
000
FTUS43 KFSD 200538
TAFFSD
TAF
KFSD 200538Z 2006/2106 02009KT 5SM -SN OVC012
     FM200700 01009KT 1SM -SN OVC010
      TEMPO 2009/2012 1/2SM SN
     FM201200 36011KT 3SM -SN OVC020
     FM201500 33013G20KT P6SM BKN030
     FM210100 31010KT P6SM SCT060=

USA.gov is the U.S. government's official web portal to all federal, state and local government web resources and services.